sensor_id;sensor_type;location;lat;lon;timestamp;pressure;altitude;pressure_sealevel;temperature;humidity
21361;BME280;10839;43.206;23.550;2023-07-31T00:02:15;96756.28;;;24.36;99.19
21361;BME280;10839;43.206;23.550;2023-07-31T00:04:41;96765.00;;;24.43;100.00
21361;BME280;10839;43.206;23.550;2023-07-31T00:07:06;96766.09;;;24.42;98.52
21361;BME280;10839;43.206;23.550;2023-07-31T00:09:33;96760.16;;;24.35;95.53
21361;BME280;10839;43.206;23.550;2023-07-31T00:11:59;96763.88;;;24.44;95.25
21361;BME280;10839;43.206;23.550;2023-07-31T00:14:25;96752.75;;;24.31;95.25
21361;BME280;10839;43.206;23.550;2023-07-31T00:16:51;96753.34;;;24.51;94.93
21361;BME280;10839;43.206;23.550;2023-07-31T00:19:16;96748.91;;;24.55;94.96
21361;BME280;10839;43.206;23.550;2023-07-31T00:21:44;96740.84;;;24.40;95.73
21361;BME280;10839;43.206;23.550;2023-07-31T00:24:10;96744.22;;;24.56;95.89
21361;BME280;10839;43.206;23.550;2023-07-31T00:26:35;96746.22;;;24.50;93.75
21361;BME280;10839;43.206;23.550;2023-07-31T00:29:01;96744.44;;;24.36;98.10
21361;BME280;10839;43.206;23.550;2023-07-31T00:31:27;96732.38;;;24.08;96.87
21361;BME280;10839;43.206;23.550;2023-07-31T00:33:53;96730.75;;;23.73;98.75
21361;BME280;10839;43.206;23.550;2023-07-31T00:36:20;96735.56;;;23.58;100.00
21361;BME280;10839;43.206;23.550;2023-07-31T00:38:46;96718.03;;;23.54;100.00
21361;BME280;10839;43.206;23.550;2023-07-31T00:41:11;96723.84;;;23.42;100.00
21361;BME280;10839;43.206;23.550;2023-07-31T00:43:37;96717.69;;;23.27;100.00
21361;BME280;10839;43.206;23.550;2023-07-31T00:46:19;96720.41;;;23.27;100.00
21361;BME280;10839;43.206;23.550;2023-07-31T00:48:45;96718.03;;;23.54;100.00
21361;BME280;10839;43.206;23.550;2023-07-31T00:51:11;96702.66;;;23.48;100.00
21361;BME280;10839;43.206;23.550;2023-07-31T00:53:37;96715.16;;;23.35;100.00
21361;BME280;10839;43.206;23.550;2023-07-31T00:56:06;96708.22;;;23.43;100.00
21361;BME280;10839;43.206;23.550;2023-07-31T00:58:32;96706.91;;;23.35;100.00
21361;BME280;10839;43.206;23.550;2023-07-31T01:00:58;96698.47;;;23.22;100.00
21361;BME280;10839;43.206;23.550;2023-07-31T01:03:24;96700.63;;;22.81;100.00
21361;BME280;10839;43.206;23.550;2023-07-31T01:08:44;96698.50;;;23.17;100.00
21361;BME280;10839;43.206;23.550;2023-07-31T01:11:34;96702.78;;;23.33;100.00
21361;BME280;10839;43.206;23.550;2023-07-31T01:14:01;96694.31;;;23.24;100.00
21361;BME280;10839;43.206;23.550;2023-07-31T01:16:27;96682.22;;;22.87;100.00
21361;BME280;10839;43.206;23.550;2023-07-31T01:18:53;96692.38;;;23.30;100.00
21361;BME280;10839;43.206;23.550;2023-07-31T01:21:48;96693.66;;;23.04;100.00
21361;BME280;10839;43.206;23.550;2023-07-31T01:24:28;96695.91;;;23.35;100.00
21361;BME280;10839;43.206;23.550;2023-07-31T01:26:58;96699.44;;;23.41;100.00
21361;BME280;10839;43.206;23.550;2023-07-31T01:32:04;96696.56;;;23.56;100.00
21361;BME280;10839;43.206;23.550;2023-07-31T01:34:32;96702.94;;;23.80;99.83
21361;BME280;10839;43.206;23.550;2023-07-31T01:36:58;96696.47;;;23.66;100.00
21361;BME280;10839;43.206;23.550;2023-07-31T01:39:24;96703.88;;;23.94;97.91
21361;BME280;10839;43.206;23.550;2023-07-31T01:41:50;96698.13;;;23.95;100.00
21361;BME280;10839;43.206;23.550;2023-07-31T01:44:15;96698.91;;;23.96;96.09
21361;BME280;10839;43.206;23.550;2023-07-31T01:46:41;96699.97;;;24.05;93.57
21361;BME280;10839;43.206;23.550;2023-07-31T01:49:08;96700.28;;;23.70;95.28
21361;BME280;10839;43.206;23.550;2023-07-31T01:51:33;96695.22;;;23.82;95.28
21361;BME280;10839;43.206;23.550;2023-07-31T01:54:03;96692.63;;;23.67;95.13
21361;BME280;10839;43.206;23.550;2023-07-31T01:56:29;96692.72;;;23.57;95.54
21361;BME280;10839;43.206;23.550;2023-07-31T01:58:54;96690.16;;;23.65;94.91
21361;BME280;10839;43.206;23.550;2023-07-31T02:01:20;96697.28;;;23.95;91.89
21361;BME280;10839;43.206;23.550;2023-07-31T02:03:46;96694.53;;;23.95;91.19
21361;BME280;10839;43.206;23.550;2023-07-31T02:06:14;96699.81;;;24.20;90.37
21361;BME280;10839;43.206;23.550;2023-07-31T02:08:39;96689.72;;;23.82;91.66
21361;BME280;10839;43.206;23.550;2023-07-31T02:11:05;96692.13;;;23.60;94.86
21361;BME280;10839;43.206;23.550;2023-07-31T02:13:31;96688.00;;;23.29;97.35
21361;BME280;10839;43.206;23.550;2023-07-31T02:15:57;96676.31;;;23.47;95.08
21361;BME280;10839;43.206;23.550;2023-07-31T02:18:24;96673.50;;;23.57;94.27
21361;BME280;10839;43.206;23.550;2023-07-31T02:20:51;96674.47;;;23.66;94.06
21361;BME280;10839;43.206;23.550;2023-07-31T02:23:18;96674.03;;;23.59;93.92
21361;BME280;10839;43.206;23.550;2023-07-31T02:25:44;96672.22;;;23.73;90.87
21361;BME280;10839;43.206;23.550;2023-07-31T02:28:10;96679.13;;;23.99;90.10
21361;BME280;10839;43.206;23.550;2023-07-31T02:30:36;96676.97;;;23.91;90.63
21361;BME280;10839;43.206;23.550;2023-07-31T02:33:02;96688.16;;;24.05;89.00
21361;BME280;10839;43.206;23.550;2023-07-31T02:35:28;96694.84;;;24.22;88.96
21361;BME280;10839;43.206;23.550;2023-07-31T02:37:53;96693.28;;;24.11;89.66
21361;BME280;10839;43.206;23.550;2023-07-31T02:40:19;96690.59;;;24.06;88.12
21361;BME280;10839;43.206;23.550;2023-07-31T02:42:45;96698.69;;;24.21;89.54
21361;BME280;10839;43.206;23.550;2023-07-31T02:45:11;96699.84;;;24.15;91.03
21361;BME280;10839;43.206;23.550;2023-07-31T02:47:37;96702.91;;;24.14;92.68
21361;BME280;10839;43.206;23.550;2023-07-31T02:50:03;96710.84;;;24.15;91.29
21361;BME280;10839;43.206;23.550;2023-07-31T02:52:30;96713.66;;;24.10;91.28
21361;BME280;10839;43.206;23.550;2023-07-31T02:54:57;96722.34;;;24.22;90.32
21361;BME280;10839;43.206;23.550;2023-07-31T02:57:23;96725.59;;;24.24;89.33
21361;BME280;10839;43.206;23.550;2023-07-31T02:59:49;96725.03;;;24.27;89.02
21361;BME280;10839;43.206;23.550;2023-07-31T03:02:15;96730.94;;;24.39;88.43
21361;BME280;10839;43.206;23.550;2023-07-31T03:04:41;96721.16;;;24.28;88.82
21361;BME280;10839;43.206;23.550;2023-07-31T03:07:07;96735.03;;;24.18;87.88
21361;BME280;10839;43.206;23.550;2023-07-31T03:09:33;96737.56;;;24.38;86.43
21361;BME280;10839;43.206;23.550;2023-07-31T03:11:58;96744.44;;;24.36;88.94
21361;BME280;10839;43.206;23.550;2023-07-31T03:14:26;96741.53;;;24.27;89.04
21361;BME280;10839;43.206;23.550;2023-07-31T03:16:55;96743.84;;;24.15;88.58
21361;BME280;10839;43.206;23.550;2023-07-31T03:19:20;96750.69;;;24.18;89.90
21361;BME280;10839;43.206;23.550;2023-07-31T03:21:46;96745.63;;;24.30;88.47
21361;BME280;10839;43.206;23.550;2023-07-31T03:24:12;96740.47;;;24.23;87.42
21361;BME280;10839;43.206;23.550;2023-07-31T03:26:38;96751.56;;;24.13;88.85
21361;BME280;10839;43.206;23.550;2023-07-31T03:29:07;96747.59;;;24.24;87.41
21361;BME280;10839;43.206;23.550;2023-07-31T03:31:34;96750.63;;;24.23;85.58
21361;BME280;10839;43.206;23.550;2023-07-31T03:34:00;96747.59;;;24.24;84.76
21361;BME280;10839;43.206;23.550;2023-07-31T03:36:26;96745.38;;;24.26;85.09
21361;BME280;10839;43.206;23.550;2023-07-31T03:38:53;96747.59;;;24.24;85.15
21361;BME280;10839;43.206;23.550;2023-07-31T03:41:18;96743.50;;;24.22;85.30
21361;BME280;10839;43.206;23.550;2023-07-31T03:43:49;96739.16;;;24.16;85.94
21361;BME280;10839;43.206;23.550;2023-07-31T03:46:16;96746.00;;;24.70;83.98
21361;BME280;10839;43.206;23.550;2023-07-31T03:48:42;96750.53;;;25.41;78.84
21361;BME280;10839;43.206;23.550;2023-07-31T03:51:08;96757.66;;;25.79;76.90
21361;BME280;10839;43.206;23.550;2023-07-31T03:53:34;96756.03;;;25.78;76.26
21361;BME280;10839;43.206;23.550;2023-07-31T03:56:00;96751.72;;;25.35;78.92
21361;BME280;10839;43.206;23.550;2023-07-31T03:58:26;96757.59;;;25.09;82.70
21361;BME280;10839;43.206;23.550;2023-07-31T04:00:52;96752.19;;;24.81;85.49
21361;BME280;10839;43.206;23.550;2023-07-31T04:03:17;96746.03;;;25.07;84.44
21361;BME280;10839;43.206;23.550;2023-07-31T04:05:44;96755.94;;;24.90;85.45
21361;BME280;10839;43.206;23.550;2023-07-31T04:08:10;96752.22;;;24.99;85.20
21361;BME280;10839;43.206;23.550;2023-07-31T04:10:35;96750.06;;;25.71;80.70
21361;BME280;10839;43.206;23.550;2023-07-31T04:13:01;96756.56;;;26.98;74.46
21361;BME280;10839;43.206;23.550;2023-07-31T04:15:27;96751.03;;;26.71;73.00
21361;BME280;10839;43.206;23.550;2023-07-31T04:17:53;96747.38;;;28.27;65.77
21361;BME280;10839;43.206;23.550;2023-07-31T04:20:19;96759.63;;;29.04;62.09
21361;BME280;10839;43.206;23.550;2023-07-31T04:22:44;96756.50;;;28.49;62.51
21361;BME280;10839;43.206;23.550;2023-07-31T04:25:10;96756.31;;;27.93;64.56
21361;BME280;10839;43.206;23.550;2023-07-31T04:27:36;96771.69;;;29.64;59.61
21361;BME280;10839;43.206;23.550;2023-07-31T04:30:02;96758.91;;;31.45;53.22
21361;BME280;10839;43.206;23.550;2023-07-31T04:32:27;96759.53;;;29.09;59.36
21361;BME280;10839;43.206;23.550;2023-07-31T04:34:54;96754.38;;;27.80;63.91
21361;BME280;10839;43.206;23.550;2023-07-31T04:37:20;96767.59;;;27.61;65.21
21361;BME280;10839;43.206;23.550;2023-07-31T04:39:46;96769.53;;;27.60;65.78
21361;BME280;10839;43.206;23.550;2023-07-31T04:42:12;96768.59;;;27.29;67.59
21361;BME280;10839;43.206;23.550;2023-07-31T04:44:38;96773.72;;;27.09;67.83
21361;BME280;10839;43.206;23.550;2023-07-31T04:47:04;96772.78;;;27.13;68.23
21361;BME280;10839;43.206;23.550;2023-07-31T04:49:30;96767.41;;;26.81;70.22
21361;BME280;10839;43.206;23.550;2023-07-31T04:51:55;96769.19;;;26.45;72.48
21361;BME280;10839;43.206;23.550;2023-07-31T04:54:21;96769.34;;;26.94;70.86
21361;BME280;10839;43.206;23.550;2023-07-31T04:56:47;96756.72;;;28.31;63.71
21361;BME280;10839;43.206;23.550;2023-07-31T04:59:13;96764.16;;;27.42;66.60
21361;BME280;10839;43.206;23.550;2023-07-31T05:01:39;96763.84;;;29.66;59.67
21361;BME280;10839;43.206;23.550;2023-07-31T05:04:04;96769.47;;;32.33;50.74
21361;BME280;10839;43.206;23.550;2023-07-31T05:06:30;96772.38;;;32.70;48.35
21361;BME280;10839;43.206;23.550;2023-07-31T05:08:56;96779.66;;;33.43;45.54
21361;BME280;10839;43.206;23.550;2023-07-31T05:11:22;96778.44;;;33.80;44.97
21361;BME280;10839;43.206;23.550;2023-07-31T05:13:47;96777.25;;;33.81;41.89
21361;BME280;10839;43.206;23.550;2023-07-31T05:16:13;96781.13;;;34.71;39.04
21361;BME280;10839;43.206;23.550;2023-07-31T05:18:39;96781.47;;;34.85;38.09
21361;BME280;10839;43.206;23.550;2023-07-31T05:21:04;96782.31;;;35.48;36.37
21361;BME280;10839;43.206;23.550;2023-07-31T05:23:39;96786.13;;;35.40;35.98
21361;BME280;10839;43.206;23.550;2023-07-31T05:26:06;96782.16;;;35.76;35.72
21361;BME280;10839;43.206;23.550;2023-07-31T05:28:34;96778.97;;;36.12;34.58
21361;BME280;10839;43.206;23.550;2023-07-31T05:31:01;96781.78;;;36.31;34.30
21361;BME280;10839;43.206;23.550;2023-07-31T05:33:27;96776.41;;;36.42;33.71
21361;BME280;10839;43.206;23.550;2023-07-31T05:35:53;96786.34;;;36.58;33.35
21361;BME280;10839;43.206;23.550;2023-07-31T05:38:19;96783.53;;;36.01;34.39
21361;BME280;10839;43.206;23.550;2023-07-31T05:40:45;96785.44;;;35.97;33.83
21361;BME280;10839;43.206;23.550;2023-07-31T05:43:11;96786.81;;;35.53;33.56
21361;BME280;10839;43.206;23.550;2023-07-31T05:45:37;96791.34;;;35.92;33.17
21361;BME280;10839;43.206;23.550;2023-07-31T05:48:03;96792.56;;;36.10;32.84
21361;BME280;10839;43.206;23.550;2023-07-31T05:50:29;96798.16;;;36.10;32.83
21361;BME280;10839;43.206;23.550;2023-07-31T05:52:55;96801.41;;;36.50;32.16
21361;BME280;10839;43.206;23.550;2023-07-31T05:55:21;96790.03;;;36.81;31.85
21361;BME280;10839;43.206;23.550;2023-07-31T05:57:47;96797.81;;;36.72;31.29
21361;BME280;10839;43.206;23.550;2023-07-31T06:00:13;96803.19;;;36.20;32.33
21361;BME280;10839;43.206;23.550;2023-07-31T06:02:40;96798.22;;;36.90;31.62
21361;BME280;10839;43.206;23.550;2023-07-31T06:05:06;96804.06;;;36.24;32.48
21361;BME280;10839;43.206;23.550;2023-07-31T06:07:32;96808.34;;;36.37;32.15
21361;BME280;10839;43.206;23.550;2023-07-31T06:09:58;96807.72;;;35.90;32.02
21361;BME280;10839;43.206;23.550;2023-07-31T06:12:30;96805.97;;;36.20;31.89
21361;BME280;10839;43.206;23.550;2023-07-31T06:14:57;96795.50;;;35.98;31.86
21361;BME280;10839;43.206;23.550;2023-07-31T06:17:23;96802.88;;;37.05;31.14
21361;BME280;10839;43.206;23.550;2023-07-31T06:19:49;96793.78;;;37.34;30.44
21361;BME280;10839;43.206;23.550;2023-07-31T06:22:15;96805.16;;;37.22;30.67
21361;BME280;10839;43.206;23.550;2023-07-31T06:24:41;96810.84;;;36.42;31.40
21361;BME280;10839;43.206;23.550;2023-07-31T06:27:07;96808.03;;;36.04;32.39
21361;BME280;10839;43.206;23.550;2023-07-31T06:29:33;96807.91;;;36.54;31.45
21361;BME280;10839;43.206;23.550;2023-07-31T06:31:59;96819.28;;;36.61;31.60
21361;BME280;10839;43.206;23.550;2023-07-31T06:34:25;96818.97;;;36.47;31.67
21361;BME280;10839;43.206;23.550;2023-07-31T06:36:51;96807.47;;;36.52;31.50
21361;BME280;10839;43.206;23.550;2023-07-31T06:39:17;96818.19;;;36.47;30.99
21361;BME280;10839;43.206;23.550;2023-07-31T06:41:44;96805.00;;;36.70;31.03
21361;BME280;10839;43.206;23.550;2023-07-31T06:44:10;96808.31;;;36.75;31.51
21361;BME280;10839;43.206;23.550;2023-07-31T06:46:36;96803.03;;;36.13;31.92
21361;BME280;10839;43.206;23.550;2023-07-31T06:49:02;96801.63;;;36.23;31.70
21361;BME280;10839;43.206;23.550;2023-07-31T06:51:28;96803.50;;;36.34;32.48
21361;BME280;10839;43.206;23.550;2023-07-31T06:53:57;96808.88;;;36.43;31.85
21361;BME280;10839;43.206;23.550;2023-07-31T06:56:23;96805.47;;;36.53;32.17
21361;BME280;10839;43.206;23.550;2023-07-31T06:58:49;96802.34;;;36.20;32.38
21361;BME280;10839;43.206;23.550;2023-07-31T07:01:15;96807.59;;;36.40;32.24
21361;BME280;10839;43.206;23.550;2023-07-31T07:03:41;96805.13;;;35.66;32.75
21361;BME280;10839;43.206;23.550;2023-07-31T07:06:07;96803.31;;;36.08;32.35
21361;BME280;10839;43.206;23.550;2023-07-31T07:08:33;96807.03;;;35.62;33.55
21361;BME280;10839;43.206;23.550;2023-07-31T07:10:59;96810.91;;;35.73;33.14
21361;BME280;10839;43.206;23.550;2023-07-31T07:13:24;96792.41;;;36.41;32.88
21361;BME280;10839;43.206;23.550;2023-07-31T07:15:51;96796.22;;;36.14;32.23
21361;BME280;10839;43.206;23.550;2023-07-31T07:18:17;96799.59;;;36.04;32.62
21361;BME280;10839;43.206;23.550;2023-07-31T07:20:50;96800.53;;;35.58;33.70
21361;BME280;10839;43.206;23.550;2023-07-31T07:23:16;96798.13;;;35.41;34.10
21361;BME280;10839;43.206;23.550;2023-07-31T07:25:43;96800.09;;;35.25;34.00
21361;BME280;10839;43.206;23.550;2023-07-31T07:28:09;96812.72;;;34.32;35.60
21361;BME280;10839;43.206;23.550;2023-07-31T07:30:35;96812.91;;;34.95;34.79
21361;BME280;10839;43.206;23.550;2023-07-31T07:33:02;96820.59;;;33.51;35.94
21361;BME280;10839;43.206;23.550;2023-07-31T07:35:28;96806.41;;;34.47;35.00
21361;BME280;10839;43.206;23.550;2023-07-31T07:37:54;96805.19;;;34.76;34.72
21361;BME280;10839;43.206;23.550;2023-07-31T07:40:20;96808.56;;;34.81;34.99
21361;BME280;10839;43.206;23.550;2023-07-31T07:42:50;96806.13;;;33.73;36.59
21361;BME280;10839;43.206;23.550;2023-07-31T07:45:15;96806.91;;;32.44;38.27
21361;BME280;10839;43.206;23.550;2023-07-31T07:47:42;96813.28;;;32.12;39.13
21361;BME280;10839;43.206;23.550;2023-07-31T07:50:08;96803.22;;;32.20;39.09
21361;BME280;10839;43.206;23.550;2023-07-31T07:52:34;96809.19;;;33.68;36.97
21361;BME280;10839;43.206;23.550;2023-07-31T07:55:00;96818.16;;;34.53;35.98
21361;BME280;10839;43.206;23.550;2023-07-31T07:57:26;96805.34;;;33.00;37.41
21361;BME280;10839;43.206;23.550;2023-07-31T07:59:52;96811.78;;;34.01;36.47
21361;BME280;10839;43.206;23.550;2023-07-31T08:02:18;96822.53;;;34.26;36.11
21361;BME280;10839;43.206;23.550;2023-07-31T08:04:44;96824.72;;;33.81;36.97
21361;BME280;10839;43.206;23.550;2023-07-31T08:07:13;96828.25;;;33.78;36.91
21361;BME280;10839;43.206;23.550;2023-07-31T08:09:39;96822.91;;;33.49;37.24
21361;BME280;10839;43.206;23.550;2023-07-31T08:12:14;96823.53;;;34.46;35.93
21361;BME280;10839;43.206;23.550;2023-07-31T08:14:40;96823.00;;;33.77;36.90
21361;BME280;10839;43.206;23.550;2023-07-31T08:17:06;96827.88;;;34.31;36.20
21361;BME280;10839;43.206;23.550;2023-07-31T08:19:32;96825.72;;;34.96;35.62
21361;BME280;10839;43.206;23.550;2023-07-31T08:21:58;96819.44;;;34.99;35.07
21361;BME280;10839;43.206;23.550;2023-07-31T08:24:24;96841.47;;;34.05;36.83
21361;BME280;10839;43.206;23.550;2023-07-31T08:26:50;96835.41;;;32.95;38.25
21361;BME280;10839;43.206;23.550;2023-07-31T08:29:16;96827.13;;;32.41;39.46
21361;BME280;10839;43.206;23.550;2023-07-31T08:31:41;96832.28;;;31.69;40.62
21361;BME280;10839;43.206;23.550;2023-07-31T08:34:07;96836.44;;;32.04;40.49
21361;BME280;10839;43.206;23.550;2023-07-31T08:36:33;96830.78;;;32.33;40.39
21361;BME280;10839;43.206;23.550;2023-07-31T08:38:59;96836.28;;;32.21;40.86
21361;BME280;10839;43.206;23.550;2023-07-31T08:41:25;96827.25;;;32.24;40.85
21361;BME280;10839;43.206;23.550;2023-07-31T08:43:51;96830.19;;;31.58;41.93
21361;BME280;10839;43.206;23.550;2023-07-31T08:46:18;96821.75;;;31.08;42.72
21361;BME280;10839;43.206;23.550;2023-07-31T08:48:46;96827.53;;;32.11;41.26
21361;BME280;10839;43.206;23.550;2023-07-31T08:51:14;96825.25;;;31.92;41.22
21361;BME280;10839;43.206;23.550;2023-07-31T08:53:40;96822.22;;;30.81;43.24
21361;BME280;10839;43.206;23.550;2023-07-31T08:56:06;96839.44;;;31.12;42.87
21361;BME280;10839;43.206;23.550;2023-07-31T08:58:34;96826.47;;;31.54;42.35
21361;BME280;10839;43.206;23.550;2023-07-31T09:01:03;96830.78;;;32.54;40.98
21361;BME280;10839;43.206;23.550;2023-07-31T09:03:33;96833.59;;;33.23;39.53
21361;BME280;10839;43.206;23.550;2023-07-31T09:05:59;96833.59;;;33.35;37.86
21361;BME280;10839;43.206;23.550;2023-07-31T09:08:30;96837.09;;;33.68;37.18
21361;BME280;10839;43.206;23.550;2023-07-31T09:11:02;96828.47;;;33.97;37.02
21361;BME280;10839;43.206;23.550;2023-07-31T09:13:32;96813.34;;;33.26;37.54
21361;BME280;10839;43.206;23.550;2023-07-31T09:15:59;96822.41;;;33.11;37.53
21361;BME280;10839;43.206;23.550;2023-07-31T09:18:25;96824.16;;;32.05;40.02
21361;BME280;10839;43.206;23.550;2023-07-31T09:21:06;96844.63;;;31.22;41.71
21361;BME280;10839;43.206;23.550;2023-07-31T09:23:44;96838.63;;;31.49;41.30
21361;BME280;10839;43.206;23.550;2023-07-31T09:26:11;96834.81;;;31.54;41.32
21361;BME280;10839;43.206;23.550;2023-07-31T09:28:53;96825.09;;;32.09;39.54
21361;BME280;10839;43.206;23.550;2023-07-31T09:31:40;96835.31;;;32.59;39.12
21361;BME280;10839;43.206;23.550;2023-07-31T09:34:07;96826.94;;;32.38;38.81
21361;BME280;10839;43.206;23.550;2023-07-31T09:36:40;96828.22;;;32.94;39.01
21361;BME280;10839;43.206;23.550;2023-07-31T09:39:09;96816.63;;;33.28;38.78
21361;BME280;10839;43.206;23.550;2023-07-31T09:41:43;96818.22;;;31.86;40.38
21361;BME280;10839;43.206;23.550;2023-07-31T09:44:11;96823.31;;;31.26;40.58
21361;BME280;10839;43.206;23.550;2023-07-31T09:46:37;96822.44;;;31.05;40.21
21361;BME280;10839;43.206;23.550;2023-07-31T09:49:12;96815.44;;;31.28;40.26
21361;BME280;10839;43.206;23.550;2023-07-31T09:51:40;96818.06;;;31.33;41.12
21361;BME280;10839;43.206;23.550;2023-07-31T09:54:13;96818.97;;;30.62;41.43
21361;BME280;10839;43.206;23.550;2023-07-31T09:56:45;96812.84;;;31.23;41.15
21361;BME280;10839;43.206;23.550;2023-07-31T09:59:14;96808.34;;;31.68;40.51
21361;BME280;10839;43.206;23.550;2023-07-31T10:01:41;96812.28;;;31.09;41.80
21361;BME280;10839;43.206;23.550;2023-07-31T10:04:08;96806.50;;;30.68;42.12
21361;BME280;10839;43.206;23.550;2023-07-31T10:06:36;96823.19;;;30.68;41.31
21361;BME280;10839;43.206;23.550;2023-07-31T10:09:06;96811.19;;;30.93;40.60
21361;BME280;10839;43.206;23.550;2023-07-31T10:11:41;96812.06;;;30.85;40.99
21361;BME280;10839;43.206;23.550;2023-07-31T10:14:10;96815.44;;;30.36;42.40
21361;BME280;10839;43.206;23.550;2023-07-31T10:16:38;96812.56;;;31.16;41.80
21361;BME280;10839;43.206;23.550;2023-07-31T10:19:05;96818.56;;;31.64;41.50
21361;BME280;10839;43.206;23.550;2023-07-31T10:21:34;96810.38;;;31.01;42.24
21361;BME280;10839;43.206;23.550;2023-07-31T10:24:03;96807.25;;;31.40;41.86
21361;BME280;10839;43.206;23.550;2023-07-31T10:26:31;96812.41;;;31.50;41.88
21361;BME280;10839;43.206;23.550;2023-07-31T10:28:58;96806.69;;;30.80;43.57
21361;BME280;10839;43.206;23.550;2023-07-31T10:31:27;96807.59;;;30.38;43.89
21361;BME280;10839;43.206;23.550;2023-07-31T10:33:55;96806.81;;;30.92;42.21
21361;BME280;10839;43.206;23.550;2023-07-31T10:36:23;96800.78;;;31.48;41.63
21361;BME280;10839;43.206;23.550;2023-07-31T10:38:49;96802.38;;;32.19;39.56
21361;BME280;10839;43.206;23.550;2023-07-31T10:41:16;96796.38;;;32.29;39.82
21361;BME280;10839;43.206;23.550;2023-07-31T10:43:42;96800.75;;;31.77;40.46
21361;BME280;10839;43.206;23.550;2023-07-31T10:46:12;96795.84;;;31.74;40.82
21361;BME280;10839;43.206;23.550;2023-07-31T10:48:39;96797.69;;;31.70;41.71
21361;BME280;10839;43.206;23.550;2023-07-31T10:51:08;96786.78;;;31.36;41.13
21361;BME280;10839;43.206;23.550;2023-07-31T10:53:42;96798.28;;;30.97;41.51
21361;BME280;10839;43.206;23.550;2023-07-31T10:56:09;96796.41;;;31.47;40.21
21361;BME280;10839;43.206;23.550;2023-07-31T10:58:44;96793.56;;;31.56;39.61
21361;BME280;10839;43.206;23.550;2023-07-31T11:01:11;96793.38;;;30.94;40.73
21361;BME280;10839;43.206;23.550;2023-07-31T11:03:42;96792.03;;;31.00;41.22
21361;BME280;10839;43.206;23.550;2023-07-31T11:06:09;96789.81;;;30.85;41.52
21361;BME280;10839;43.206;23.550;2023-07-31T11:08:41;96787.31;;;30.46;41.46
21361;BME280;10839;43.206;23.550;2023-07-31T11:11:09;96780.56;;;30.64;41.74
21361;BME280;10839;43.206;23.550;2023-07-31T11:13:47;96791.47;;;30.86;41.29
21361;BME280;10839;43.206;23.550;2023-07-31T11:16:24;96788.47;;;31.78;40.37
21361;BME280;10839;43.206;23.550;2023-07-31T11:18:51;96780.94;;;31.58;40.33
21361;BME280;10839;43.206;23.550;2023-07-31T11:21:20;96775.03;;;31.39;40.55
21361;BME280;10839;43.206;23.550;2023-07-31T11:23:51;96780.16;;;31.20;40.80
21361;BME280;10839;43.206;23.550;2023-07-31T11:26:18;96785.91;;;31.15;40.25
21361;BME280;10839;43.206;23.550;2023-07-31T11:28:48;96783.44;;;31.22;40.49
21361;BME280;10839;43.206;23.550;2023-07-31T11:31:14;96782.16;;;30.82;41.32
21361;BME280;10839;43.206;23.550;2023-07-31T11:33:40;96779.81;;;30.92;41.96
21361;BME280;10839;43.206;23.550;2023-07-31T11:36:09;96792.41;;;30.90;41.91
21361;BME280;10839;43.206;23.550;2023-07-31T11:38:40;96778.47;;;30.98;41.89
21361;BME280;10839;43.206;23.550;2023-07-31T11:41:06;96786.28;;;31.05;41.33
21361;BME280;10839;43.206;23.550;2023-07-31T11:43:32;96780.84;;;31.17;41.86
21361;BME280;10839;43.206;23.550;2023-07-31T11:46:00;96778.94;;;31.38;41.42
21361;BME280;10839;43.206;23.550;2023-07-31T11:48:30;96780.53;;;31.10;41.58
21361;BME280;10839;43.206;23.550;2023-07-31T11:51:01;96778.06;;;31.46;40.93
21361;BME280;10839;43.206;23.550;2023-07-31T11:56:12;96766.06;;;31.25;40.13
21361;BME280;10839;43.206;23.550;2023-07-31T11:58:39;96754.84;;;31.13;40.56
21361;BME280;10839;43.206;23.550;2023-07-31T12:01:07;96756.47;;;30.85;40.22
21361;BME280;10839;43.206;23.550;2023-07-31T12:03:34;96762.16;;;30.88;39.93
21361;BME280;10839;43.206;23.550;2023-07-31T12:06:00;96754.16;;;30.87;40.28
21361;BME280;10839;43.206;23.550;2023-07-31T12:08:26;96760.28;;;31.39;40.41
21361;BME280;10839;43.206;23.550;2023-07-31T12:10:53;96747.25;;;31.72;39.46
21361;BME280;10839;43.206;23.550;2023-07-31T12:13:22;96744.50;;;31.92;38.87
21361;BME280;10839;43.206;23.550;2023-07-31T12:15:48;96735.91;;;32.51;38.46
21361;BME280;10839;43.206;23.550;2023-07-31T12:18:19;96737.03;;;32.17;37.86
21361;BME280;10839;43.206;23.550;2023-07-31T12:20:48;96729.06;;;31.74;38.79
21361;BME280;10839;43.206;23.550;2023-07-31T12:23:15;96736.94;;;31.72;38.78
21361;BME280;10839;43.206;23.550;2023-07-31T12:25:42;96730.84;;;31.58;38.35
21361;BME280;10839;43.206;23.550;2023-07-31T12:28:08;96728.09;;;31.29;38.80
21361;BME280;10839;43.206;23.550;2023-07-31T12:30:39;96724.25;;;31.13;39.67
21361;BME280;10839;43.206;23.550;2023-07-31T12:33:13;96723.69;;;30.99;39.65
21361;BME280;10839;43.206;23.550;2023-07-31T12:35:47;96722.69;;;31.33;39.28
21361;BME280;10839;43.206;23.550;2023-07-31T12:38:13;96722.53;;;31.29;39.43
21361;BME280;10839;43.206;23.550;2023-07-31T12:40:40;96712.19;;;31.09;39.29
21361;BME280;10839;43.206;23.550;2023-07-31T12:43:08;96714.72;;;30.93;39.30
21361;BME280;10839;43.206;23.550;2023-07-31T12:45:34;96710.47;;;30.96;39.41
21361;BME280;10839;43.206;23.550;2023-07-31T12:48:01;96711.75;;;30.98;39.38
21361;BME280;10839;43.206;23.550;2023-07-31T12:50:27;96707.03;;;30.99;39.94
21361;BME280;10839;43.206;23.550;2023-07-31T12:52:54;96705.50;;;30.81;40.51
21361;BME280;10839;43.206;23.550;2023-07-31T12:55:21;96700.09;;;31.05;40.57
21361;BME280;10839;43.206;23.550;2023-07-31T12:57:47;96706.09;;;30.86;40.29
21361;BME280;10839;43.206;23.550;2023-07-31T13:00:14;96711.84;;;30.81;40.36